createdAt,value
2023-02-15T00:02:10.969Z,1.15
2023-02-15T00:04:50.335Z,0.65
2023-02-15T00:07:20.210Z,0.50
2023-02-15T00:09:48.230Z,1.38
2023-02-15T00:12:16.374Z,0.60
2023-02-15T00:14:43.508Z,1.15
2023-02-15T00:17:10.815Z,0.43
2023-02-15T00:19:37.769Z,0.35
2023-02-15T00:22:05.954Z,0.50
2023-02-15T00:24:33.333Z,0.30
2023-02-15T00:27:00.407Z,1.05
2023-02-15T00:29:27.809Z,0.80
2023-02-15T00:31:55.794Z,0.70
2023-02-15T00:34:27.495Z,1.05
2023-02-15T00:36:55.667Z,0.75
2023-02-15T00:39:23.110Z,0.50
2023-02-15T00:41:50.282Z,0.30
2023-02-15T00:44:18.692Z,0.47
2023-02-15T00:46:45.947Z,0.22
2023-02-15T00:49:13.180Z,0.20
2023-02-15T00:51:40.978Z,0.30
2023-02-15T00:54:11.752Z,1.05
2023-02-15T00:56:38.938Z,1.15
2023-02-15T00:59:06.230Z,1.13
2023-02-15T01:01:33.826Z,1.05
2023-02-15T01:04:00.982Z,0.40
2023-02-15T01:06:30.083Z,0.80
2023-02-15T01:08:57.173Z,1.48
2023-02-15T01:11:24.742Z,0.98
2023-02-15T01:13:57.405Z,0.60
2023-02-15T01:16:27.333Z,0.30
2023-02-15T01:18:55.934Z,0.20
2023-02-15T01:21:25.138Z,0.38
2023-02-15T01:23:53.161Z,0.20
2023-02-15T01:26:20.550Z,0.30
2023-02-15T01:28:48.961Z,0.47
2023-02-15T01:31:19.334Z,0.50
2023-02-15T01:33:48.449Z,0.32
2023-02-15T01:36:18.602Z,1.17
2023-02-15T01:38:46.709Z,0.65
2023-02-15T01:41:30.067Z,0.88
2023-02-15T01:44:00.777Z,0.60
2023-02-15T01:46:41.924Z,0.22
2023-02-15T01:49:16.410Z,0.40
2023-02-15T01:51:46.396Z,0.75
2023-02-15T01:54:22.493Z,0.50
2023-02-15T01:56:50.093Z,0.57
2023-02-15T01:59:22.589Z,0.80
2023-02-15T02:01:53.890Z,0.60
2023-02-15T02:04:21.060Z,0.50
2023-02-15T02:06:50.571Z,0.50
2023-02-15T02:09:17.960Z,0.77
2023-02-15T02:11:48.756Z,1.05
2023-02-15T02:14:17.795Z,1.05
2023-02-15T02:16:58.778Z,0.80
2023-02-15T02:19:41.228Z,0.55
2023-02-15T02:22:50.631Z,0.47
2023-02-15T02:25:52.200Z,0.22
2023-02-15T02:28:38.046Z,0.47
2023-02-15T02:31:27.012Z,0.45
2023-02-15T02:34:10.187Z,0.60
2023-02-15T02:36:50.888Z,0.73
2023-02-15T02:39:24.026Z,0.55
2023-02-15T02:42:06.642Z,0.90
2023-02-15T02:44:54.415Z,0.65
2023-02-15T02:47:31.306Z,0.88
2023-02-15T02:50:05.314Z,0.47
2023-02-15T02:52:45.607Z,0.63
2023-02-15T02:55:24.389Z,0.50
2023-02-15T02:58:14.988Z,0.93
2023-02-15T03:00:57.775Z,0.50
2023-02-15T03:03:35.346Z,0.40
2023-02-15T03:06:08.172Z,0.68
2023-02-15T03:08:44.207Z,1.23
2023-02-15T03:11:12.958Z,0.80
2023-02-15T03:13:41.746Z,0.98
2023-02-15T03:16:29.540Z,0.80
2023-02-15T03:19:09.832Z,1.05
2023-02-15T03:21:59.099Z,0.82
2023-02-15T03:24:36.086Z,0.40
2023-02-15T03:27:07.687Z,0.90
2023-02-15T03:29:36.501Z,0.80
2023-02-15T03:32:08.375Z,0.70
2023-02-15T03:34:35.830Z,0.73
2023-02-15T03:37:15.082Z,0.88
2023-02-15T03:40:19.698Z,1.67
2023-02-15T03:42:50.343Z,0.52
2023-02-15T03:45:24.440Z,0.55
2023-02-15T03:47:54.008Z,0.35
2023-02-15T03:50:44.699Z,0.50
2023-02-15T03:53:15.512Z,0.93
2023-02-15T03:55:42.976Z,1.15
2023-02-15T03:58:28.719Z,1.10
2023-02-15T04:01:26.103Z,0.73
2023-02-15T04:04:00.760Z,0.63
2023-02-15T04:06:28.238Z,0.63
2023-02-15T04:09:14.199Z,0.73
2023-02-15T04:11:41.484Z,0.40
2023-02-15T04:14:27.559Z,0.47
2023-02-15T04:16:54.853Z,1.13
2023-02-15T04:19:40.917Z,0.80
2023-02-15T04:22:26.924Z,0.80
2023-02-15T04:25:12.949Z,0.88
2023-02-15T04:27:52.028Z,0.20
2023-02-15T04:30:21.916Z,0.40
2023-02-15T04:32:49.324Z,0.85
2023-02-15T04:35:17.459Z,0.77
2023-02-15T04:37:45.445Z,1.00
2023-02-15T04:40:17.353Z,1.23
2023-02-15T04:42:50.131Z,0.63
2023-02-15T04:45:18.746Z,0.45
2023-02-15T04:47:46.386Z,0.65
2023-02-15T04:50:13.936Z,0.40
2023-02-15T04:52:41.483Z,0.35
2023-02-15T04:55:09.878Z,0.35
2023-02-15T04:57:37.438Z,0.70
2023-02-15T05:00:05.395Z,0.73
2023-02-15T05:02:32.632Z,0.85
2023-02-15T05:05:00.321Z,0.73
2023-02-15T05:07:27.845Z,0.43
2023-02-15T05:09:55.944Z,0.32
2023-02-15T05:12:23.560Z,0.63
2023-02-15T05:14:50.858Z,0.47
2023-02-15T05:17:18.269Z,0.60
2023-02-15T05:19:46.160Z,0.50
2023-02-15T05:22:14.205Z,0.55
2023-02-15T05:25:03.885Z,0.63
2023-02-15T05:27:51.188Z,1.00
2023-02-15T05:30:19.391Z,0.45
2023-02-15T05:32:46.867Z,0.82
2023-02-15T05:35:16.920Z,0.88
2023-02-15T05:37:45.786Z,0.30
2023-02-15T05:40:14.645Z,0.60
2023-02-15T05:42:45.410Z,0.77
2023-02-15T05:45:14.048Z,0.60
2023-02-15T05:47:41.295Z,0.60
2023-02-15T05:50:10.101Z,0.90
2023-02-15T05:52:39.035Z,0.75
2023-02-15T05:55:10.400Z,0.73
2023-02-15T05:57:38.390Z,0.68
2023-02-15T06:00:11.227Z,0.85
2023-02-15T06:02:41.770Z,0.30
2023-02-15T06:05:12.557Z,1.20
2023-02-15T06:07:40.320Z,0.50
2023-02-15T06:10:08.769Z,0.40
2023-02-15T06:12:36.468Z,0.45
2023-02-15T06:15:05.322Z,0.30
2023-02-15T06:17:33.292Z,0.50
2023-02-15T06:20:00.749Z,0.35
2023-02-15T06:22:28.896Z,0.55
2023-02-15T06:24:56.651Z,0.70
2023-02-15T06:27:24.051Z,0.70
2023-02-15T06:29:52.292Z,0.82
2023-02-15T06:32:20.647Z,0.40
2023-02-15T06:34:48.904Z,0.73
2023-02-15T06:37:16.782Z,0.70
2023-02-15T06:39:45.646Z,0.65
2023-02-15T06:42:14.503Z,0.95
2023-02-15T06:44:42.383Z,0.40
2023-02-15T06:47:10.577Z,0.52
2023-02-15T06:49:38.683Z,0.93
2023-02-15T06:52:07.039Z,0.40
2023-02-15T06:54:34.441Z,0.77
2023-02-15T06:57:02.479Z,0.68
2023-02-15T06:59:30.440Z,0.73
2023-02-15T07:01:58.044Z,0.63
2023-02-15T07:04:27.828Z,0.65
2023-02-15T07:06:56.678Z,0.50
2023-02-15T07:09:24.088Z,0.60
2023-02-15T07:12:10.466Z,0.85
2023-02-15T07:14:38.460Z,0.88
2023-02-15T07:17:11.730Z,0.90
2023-02-15T07:19:46.868Z,0.43
2023-02-15T07:22:14.426Z,0.30
2023-02-15T07:24:42.573Z,0.88
2023-02-15T07:27:11.085Z,1.30
2023-02-15T07:29:40.354Z,0.82
2023-02-15T07:32:11.551Z,0.93
2023-02-15T07:34:39.302Z,0.70
2023-02-15T07:37:06.675Z,0.70
2023-02-15T07:39:34.736Z,4.35
2023-02-15T07:42:02.500Z,2.28
2023-02-15T07:44:31.956Z,1.00
2023-02-15T07:46:59.116Z,0.75
2023-02-15T07:49:26.531Z,1.00
2023-02-15T07:51:54.314Z,1.20
2023-02-15T07:54:22.361Z,0.90
2023-02-15T07:56:49.418Z,1.00
2023-02-15T07:59:17.346Z,3.72
2023-02-15T08:01:44.998Z,2.45
2023-02-15T08:04:12.498Z,2.38
2023-02-15T08:06:40.198Z,2.38
2023-02-15T08:09:10.322Z,1.60
2023-02-15T08:11:40.899Z,1.70
2023-02-15T08:14:14.957Z,2.53
2023-02-15T08:16:53.890Z,2.30
2023-02-15T08:19:30.139Z,3.20
2023-02-15T08:22:00.856Z,4.00
2023-02-15T08:24:31.762Z,1.48
2023-02-15T08:26:59.988Z,1.00
2023-02-15T08:29:29.860Z,2.17
2023-02-15T08:32:04.035Z,2.40
2023-02-15T08:34:35.257Z,0.95
2023-02-15T08:37:03.046Z,0.85
2023-02-15T08:39:30.719Z,1.08
2023-02-15T08:41:59.332Z,2.05
2023-02-15T08:44:26.975Z,0.80
2023-02-15T08:46:56.070Z,1.15
2023-02-15T08:49:23.768Z,0.80
2023-02-15T08:51:51.917Z,1.17
2023-02-15T08:54:21.971Z,1.27
2023-02-15T08:56:50.414Z,0.60
2023-02-15T08:59:23.357Z,0.90
2023-02-15T09:01:52.735Z,1.10
2023-02-15T09:04:21.426Z,1.00
2023-02-15T09:06:54.298Z,0.70
2023-02-15T09:11:56.804Z,0.77
2023-02-15T09:14:29.315Z,0.88
2023-02-15T09:16:58.281Z,0.70
2023-02-15T09:19:29.146Z,1.00
2023-02-15T09:22:00.152Z,1.00
2023-02-15T09:24:28.760Z,1.23
2023-02-15T09:26:59.910Z,0.70
2023-02-15T09:29:28.058Z,0.70
2023-02-15T09:31:55.541Z,0.70
2023-02-15T09:34:24.008Z,1.15
2023-02-15T09:36:52.548Z,1.15
2023-02-15T09:39:25.095Z,0.95
2023-02-15T09:42:10.888Z,0.70
2023-02-15T09:44:56.441Z,1.10
2023-02-15T09:47:57.064Z,1.10
2023-02-15T09:50:43.123Z,1.20
2023-02-15T09:53:22.331Z,1.25
2023-02-15T09:56:20.762Z,1.00
2023-02-15T09:58:56.632Z,0.90
2023-02-15T10:01:40.624Z,0.73
2023-02-15T10:05:05.299Z,1.02
2023-02-15T10:07:58.146Z,1.00
2023-02-15T10:10:46.261Z,1.05
2023-02-15T10:13:37.957Z,1.23
2023-02-15T10:16:43.840Z,0.77
2023-02-15T10:19:32.521Z,1.10
2023-02-15T10:22:23.488Z,0.98
2023-02-15T10:25:26.449Z,0.60
2023-02-15T10:27:54.788Z,1.05
2023-02-15T10:30:38.987Z,1.40
2023-02-15T10:33:24.698Z,1.13
2023-02-15T10:36:13.688Z,1.13
2023-02-15T10:39:20.045Z,1.20
2023-02-15T10:42:03.961Z,1.27
2023-02-15T10:44:53.850Z,0.77
2023-02-15T10:47:52.273Z,0.50
2023-02-15T10:50:46.440Z,0.60
2023-02-15T10:53:38.036Z,0.80
2023-02-15T10:56:17.911Z,1.67
2023-02-15T10:59:19.681Z,0.93
2023-02-15T11:02:08.976Z,1.17
2023-02-15T11:05:11.875Z,1.35
2023-02-15T11:07:46.616Z,1.17
2023-02-15T11:10:36.403Z,0.50
2023-02-15T11:13:11.182Z,0.73
2023-02-15T11:15:41.411Z,0.70
2023-02-15T11:18:32.126Z,0.85
2023-02-15T11:21:05.601Z,0.63
2023-02-15T11:23:39.378Z,0.80
2023-02-15T11:26:38.391Z,0.93
2023-02-15T11:29:17.318Z,1.45
2023-02-15T11:31:47.793Z,1.08
2023-02-15T11:34:35.503Z,0.70
2023-02-15T11:37:20.241Z,0.80
2023-02-15T11:39:52.833Z,1.48
2023-02-15T11:45:03.820Z,1.33
2023-02-15T11:47:31.376Z,1.90
2023-02-15T11:49:59.345Z,1.30
2023-02-15T11:52:27.104Z,0.50
2023-02-15T11:54:55.132Z,0.60
2023-02-15T11:57:41.627Z,1.20
2023-02-15T12:00:27.667Z,0.85
2023-02-15T12:02:58.760Z,0.40
2023-02-15T12:05:26.971Z,0.45
2023-02-15T12:08:02.595Z,0.60
2023-02-15T12:10:40.200Z,0.73
2023-02-15T12:13:17.019Z,1.20
2023-02-15T12:15:50.154Z,0.63
2023-02-15T12:18:22.924Z,0.80
2023-02-15T12:23:20.265Z,0.50
2023-02-15T12:25:57.429Z,0.82
2023-02-15T12:28:42.917Z,0.90
2023-02-15T12:31:37.672Z,1.05
2023-02-15T12:34:30.301Z,0.60
2023-02-15T12:37:02.171Z,0.95
2023-02-15T12:39:33.346Z,0.52
2023-02-15T12:42:16.167Z,1.05
2023-02-15T12:44:56.888Z,1.30
2023-02-15T12:47:28.864Z,0.60
2023-02-15T12:50:23.818Z,0.75
2023-02-15T12:53:06.706Z,0.68
2023-02-15T12:55:35.197Z,0.47
2023-02-15T12:58:17.328Z,0.38
2023-02-15T13:00:45.867Z,0.80
2023-02-15T13:03:22.783Z,0.90
2023-02-15T13:05:56.899Z,1.10
2023-02-15T13:08:34.724Z,0.45
2023-02-15T13:11:13.128Z,0.43
2023-02-15T13:13:59.554Z,0.30
2023-02-15T13:16:38.123Z,0.95
2023-02-15T13:19:18.556Z,0.30
2023-02-15T13:21:51.706Z,0.52
2023-02-15T13:24:31.691Z,0.30
2023-02-15T13:27:14.559Z,0.50
2023-02-15T13:29:53.171Z,0.30
2023-02-15T13:32:32.671Z,0.28
2023-02-15T13:35:06.420Z,0.25
2023-02-15T13:38:11.833Z,0.80
2023-02-15T13:41:08.086Z,0.80
2023-02-15T13:44:16.792Z,0.45
2023-02-15T13:46:57.863Z,0.40
2023-02-15T13:49:37.670Z,0.43
2023-02-15T13:52:27.976Z,0.63
2023-02-15T13:55:33.280Z,0.45
2023-02-15T13:58:03.828Z,0.40
2023-02-15T14:00:51.803Z,0.50
2023-02-15T14:03:31.250Z,0.45
2023-02-15T14:06:21.710Z,0.20
2023-02-15T14:09:10.694Z,0.20
2023-02-15T14:12:00.104Z,0.22
2023-02-15T14:14:59.812Z,0.55
2023-02-15T14:17:30.819Z,0.40
2023-02-15T14:20:01.599Z,0.20
2023-02-15T14:22:36.988Z,0.20
2023-02-15T14:25:20.563Z,0.52
2023-02-15T14:28:07.015Z,0.40
2023-02-15T14:30:44.640Z,0.22
2023-02-15T14:33:50.218Z,0.40
2023-02-15T14:36:23.588Z,0.50
2023-02-15T14:39:43.934Z,0.40
2023-02-15T14:42:43.763Z,0.52
2023-02-15T14:45:28.761Z,0.50
2023-02-15T14:48:14.688Z,0.45
2023-02-15T14:50:47.765Z,0.40
2023-02-15T14:53:34.322Z,0.40
2023-02-15T14:56:19.943Z,0.50
2023-02-15T14:58:53.614Z,0.70
2023-02-15T15:01:28.770Z,0.98
2023-02-15T15:04:01.536Z,0.70
2023-02-15T15:09:26.930Z,0.70
2023-02-15T15:12:16.251Z,0.80
2023-02-15T15:14:46.918Z,0.70
2023-02-15T15:17:34.277Z,0.68
2023-02-15T15:20:04.203Z,0.20
2023-02-15T15:22:33.856Z,0.52
2023-02-15T15:25:10.776Z,0.77
2023-02-15T15:27:48.739Z,0.73
2023-02-15T15:30:25.284Z,0.68
2023-02-15T15:32:56.340Z,0.82
2023-02-15T15:36:16.098Z,1.10
2023-02-15T15:39:04.192Z,0.95
2023-02-15T15:41:53.388Z,0.90
2023-02-15T15:44:58.702Z,0.93
2023-02-15T15:48:06.388Z,1.05
2023-02-15T15:50:34.696Z,1.02
2023-02-15T15:53:03.686Z,0.60
2023-02-15T15:55:33.511Z,1.65
2023-02-15T15:58:08.197Z,1.20
2023-02-15T16:00:48.316Z,1.35
2023-02-15T16:03:28.960Z,1.00
2023-02-15T16:05:57.504Z,0.80
2023-02-15T16:08:29.152Z,1.40
2023-02-15T16:10:57.188Z,0.87
2023-02-15T16:13:24.964Z,0.98
2023-02-15T16:15:55.583Z,1.27
2023-02-15T16:18:26.759Z,1.08
2023-02-15T16:21:00.610Z,0.50
2023-02-15T16:23:37.150Z,1.30
2023-02-15T16:26:04.987Z,0.80
2023-02-15T16:28:32.536Z,0.77
2023-02-15T16:31:13.775Z,0.60
2023-02-15T16:33:42.777Z,0.60
2023-02-15T16:36:32.909Z,0.63
2023-02-15T16:38:59.914Z,0.35
2023-02-15T16:41:30.107Z,0.80
2023-02-15T16:44:01.083Z,0.70
2023-02-15T16:46:57.749Z,0.80
2023-02-15T16:49:28.821Z,0.80
2023-02-15T16:52:02.428Z,0.60
2023-02-15T16:54:32.557Z,1.00
2023-02-15T16:57:00.664Z,1.10
2023-02-15T16:59:36.335Z,0.85
2023-02-15T17:02:20.366Z,0.85
2023-02-15T17:05:12.969Z,0.47
2023-02-15T17:07:42.534Z,0.47
2023-02-15T17:10:30.083Z,0.47
2023-02-15T17:13:03.776Z,0.70
2023-02-15T17:15:38.222Z,0.90
2023-02-15T17:18:12.256Z,0.50
2023-02-15T17:20:45.365Z,0.68
2023-02-15T17:23:43.318Z,0.60
2023-02-15T17:26:23.653Z,0.80
2023-02-15T17:28:54.212Z,1.13
2023-02-15T17:31:22.730Z,0.75
2023-02-15T17:33:50.581Z,0.80
2023-02-15T17:36:23.080Z,0.60
2023-02-15T17:38:59.059Z,0.65
2023-02-15T17:41:28.758Z,0.82
2023-02-15T17:43:56.293Z,0.90
2023-02-15T17:46:24.734Z,1.17
2023-02-15T17:48:55.226Z,0.93
2023-02-15T17:51:23.812Z,1.27
2023-02-15T17:54:10.133Z,0.93
2023-02-15T17:56:39.251Z,1.75
2023-02-15T17:59:11.466Z,1.20
2023-02-15T18:02:04.581Z,1.23
2023-02-15T18:07:39.032Z,1.75
2023-02-15T18:10:36.828Z,1.40
2023-02-15T18:13:04.625Z,1.65
2023-02-15T18:15:32.498Z,1.60
2023-02-15T18:18:00.092Z,1.38
2023-02-15T18:20:34.430Z,1.33
2023-02-15T18:23:02.390Z,1.58
2023-02-15T18:25:29.976Z,1.50
2023-02-15T18:27:57.440Z,1.20
2023-02-15T18:30:28.383Z,0.90
2023-02-15T18:32:57.809Z,1.10
2023-02-15T18:35:29.003Z,1.02
2023-02-15T18:37:57.016Z,1.20
2023-02-15T18:40:27.748Z,1.77
2023-02-15T18:42:57.381Z,1.42
2023-02-15T18:45:33.280Z,2.03
2023-02-15T18:48:01.239Z,1.70
2023-02-15T18:50:33.410Z,1.50
2023-02-15T18:53:06.493Z,1.20
2023-02-15T18:55:35.888Z,4.05
2023-02-15T18:58:03.592Z,3.58
2023-02-15T19:00:34.843Z,2.63
2023-02-15T19:03:05.369Z,5.43
2023-02-15T19:05:34.161Z,5.45
2023-02-15T19:08:05.683Z,22.48
2023-02-15T19:10:37.201Z,9.60
2023-02-15T19:13:04.787Z,15.27
2023-02-15T19:15:32.149Z,41.92
2023-02-15T19:17:59.798Z,43.40
2023-02-15T19:20:44.210Z,25.30
2023-02-15T19:23:25.178Z,13.20
2023-02-15T19:25:54.496Z,22.92
2023-02-15T19:28:30.075Z,14.23
2023-02-15T19:31:00.828Z,8.95
2023-02-15T19:33:28.210Z,13.70
2023-02-15T19:35:57.758Z,19.73
2023-02-15T19:38:31.319Z,21.48
2023-02-15T19:41:05.910Z,21.98
2023-02-15T19:43:35.583Z,15.63
2023-02-15T19:46:03.203Z,16.83
2023-02-15T19:48:31.484Z,16.35
2023-02-15T19:50:58.909Z,8.82
2023-02-15T19:53:28.375Z,9.35
2023-02-15T19:55:56.262Z,13.48
2023-02-15T19:58:23.953Z,10.73
2023-02-15T20:00:52.423Z,14.25
2023-02-15T20:03:25.439Z,12.00
2023-02-15T20:05:53.671Z,8.63
2023-02-15T20:08:23.618Z,8.18
2023-02-15T20:10:52.821Z,8.45
2023-02-15T20:13:24.165Z,5.28
2023-02-15T20:15:52.639Z,4.90
2023-02-15T20:18:23.487Z,4.22
2023-02-15T20:20:53.740Z,4.10
2023-02-15T20:23:31.418Z,6.30
2023-02-15T20:26:01.251Z,5.43
2023-02-15T20:28:32.175Z,7.15
2023-02-15T20:31:00.220Z,5.50
2023-02-15T20:33:27.929Z,7.40
2023-02-15T20:35:55.254Z,5.25
2023-02-15T20:38:25.857Z,7.32
2023-02-15T20:41:12.903Z,3.50
2023-02-15T20:43:42.244Z,3.42
2023-02-15T20:46:09.536Z,3.65
2023-02-15T20:48:37.201Z,3.13
2023-02-15T20:51:05.332Z,2.30
2023-02-15T20:53:32.647Z,2.17
2023-02-15T20:56:00.151Z,1.17
2023-02-15T20:58:30.700Z,2.53
2023-02-15T21:00:59.464Z,3.13
2023-02-15T21:03:31.335Z,2.45
2023-02-15T21:05:59.768Z,2.30
2023-02-15T21:08:27.796Z,1.10
2023-02-15T21:10:55.520Z,1.80
2023-02-15T21:13:27.543Z,1.48
2023-02-15T21:15:56.071Z,1.70
2023-02-15T21:18:33.560Z,3.17
2023-02-15T21:21:04.065Z,7.65
2023-02-15T21:23:38.395Z,3.67
2023-02-15T21:26:07.819Z,6.25
2023-02-15T21:28:35.180Z,3.67
2023-02-15T21:31:03.074Z,5.03
2023-02-15T21:33:30.623Z,2.17
2023-02-15T21:35:59.281Z,3.72
2023-02-15T21:38:32.495Z,2.63
2023-02-15T21:41:19.657Z,2.03
2023-02-15T21:44:05.553Z,1.95
2023-02-15T21:46:51.807Z,2.85
2023-02-15T21:49:23.231Z,2.38
2023-02-15T21:52:09.723Z,1.70
2023-02-15T21:54:37.027Z,1.38
2023-02-15T21:57:04.561Z,2.50
2023-02-15T21:59:33.039Z,3.70
2023-02-15T22:02:00.361Z,3.05
2023-02-15T22:04:30.499Z,3.42
2023-02-15T22:06:58.140Z,2.95
2023-02-15T22:09:27.316Z,3.00
2023-02-15T22:11:55.509Z,2.70
2023-02-15T22:14:43.163Z,3.08
2023-02-15T22:17:19.363Z,3.50
2023-02-15T22:19:48.172Z,2.78
2023-02-15T22:22:16.338Z,4.05
2023-02-15T22:24:44.656Z,2.10
2023-02-15T22:27:23.317Z,3.08
2023-02-15T22:29:50.831Z,1.73
2023-02-15T22:32:21.493Z,2.10
2023-02-15T22:34:52.269Z,1.15
2023-02-15T22:37:19.727Z,1.23
2023-02-15T22:39:47.174Z,2.17
2023-02-15T22:42:28.031Z,3.17
2023-02-15T22:44:57.419Z,3.33
2023-02-15T22:47:27.820Z,2.90
2023-02-15T22:49:55.990Z,2.03
2023-02-15T22:52:23.395Z,1.30
2023-02-15T22:54:50.618Z,1.92
2023-02-15T22:57:36.110Z,1.23
2023-02-15T23:00:06.499Z,1.95
2023-02-15T23:02:33.638Z,1.95
2023-02-15T23:05:01.084Z,1.60
2023-02-15T23:07:28.689Z,2.10
2023-02-15T23:09:55.796Z,2.10
2023-02-15T23:12:29.096Z,1.35
2023-02-15T23:14:57.565Z,2.00
2023-02-15T23:17:24.701Z,2.30
2023-02-15T23:19:52.136Z,1.58
2023-02-15T23:22:20.778Z,1.90
2023-02-15T23:24:52.961Z,1.63
2023-02-15T23:27:38.960Z,1.65
2023-02-15T23:30:12.696Z,1.40
2023-02-15T23:32:40.839Z,1.20
2023-02-15T23:35:19.175Z,1.75
2023-02-15T23:37:46.705Z,1.50
2023-02-15T23:40:37.904Z,1.60
2023-02-15T23:43:06.989Z,1.85
2023-02-15T23:45:38.328Z,1.48
2023-02-15T23:48:29.910Z,2.03
2023-02-15T23:50:58.146Z,1.70
2023-02-15T23:53:25.824Z,1.67
2023-02-15T23:55:53.674Z,1.80
2023-02-15T23:58:26.263Z,0.90
